PWSweather.com
Personal Weather Stations
Station Observations
TORPERJOSANG
Carretera De Villel SN , MochalesES 19332

Carretera De Villel SN MochalesES 19332

Lat: 41.09957, Lon: -2.012569

Elevation: 3215

Station Type: PSW-20

http://www.torresp.com

High Low Average
Temperature 76.6°F24.8°C 55.0°F12.8°C 62.7°F17.1°C
Dew Point 69.0°F20.6°C 54.2°F12.3°C 59.1°F15.1°C
Winds 8.1 mph 13.0 kmh Calm Calm 2.0 mph S3.2 kmh S
Wind Gusts 12.7 mph20.4 kmh -- 3.0 mph4.8 kmh
Humidity 99% 47% 90%
Pressure 30.15 in1021.0 mb 30.03 in1016.9 mb -
Precipitation 0.06 in1.5 mm - -
Hour Temp Dew Point Humidity Winds Wind Gusts Pressure Precip Precip Rate Daily Precip Total
12:00 AM 55.6°F13.1°C 55.3°F12.9°C 99% 1.2 mph SW1.9 kmh SW 3.5 mph5.6 kmh 30.15 in1021.0 mb - 0.00 in0.0 mm 0.00 in0.0 mm
12:10 AM 55.4°F13.0°C 55.1°F12.8°C 99% Calm Calm -- 30.15 in1021.0 mb - 0.00 in0.0 mm 0.00 in0.0 mm
12:15 AM 55.4°F13.0°C 55.1°F12.8°C 99% Calm Calm -- 30.15 in1021.0 mb - 0.00 in0.0 mm 0.00 in0.0 mm
12:20 AM 55.2°F12.9°C 54.4°F12.4°C 97% Calm Calm -- 30.15 in1021.0 mb - 0.00 in0.0 mm 0.00 in0.0 mm
12:25 AM 55.2°F12.9°C 54.4°F12.4°C 97% Calm Calm -- 30.15 in1021.0 mb - 0.00 in0.0 mm 0.00 in0.0 mm
12:30 AM 55.2°F12.9°C 54.4°F12.4°C 97% Calm Calm -- 30.15 in1021.0 mb - 0.00 in0.0 mm 0.00 in0.0 mm
12:35 AM 55.2°F12.9°C 54.4°F12.4°C 97% Calm Calm -- 30.15 in1021.0 mb - 0.00 in0.0 mm 0.00 in0.0 mm
12:40 AM 55.2°F12.9°C 54.4°F12.4°C 97% Calm Calm -- 30.15 in1021.0 mb - 0.00 in0.0 mm 0.00 in0.0 mm
12:45 AM 55.2°F12.9°C 54.4°F12.4°C 97% Calm Calm -- 30.15 in1021.0 mb - 0.00 in0.0 mm 0.00 in0.0 mm
12:50 AM 55.2°F12.9°C 54.4°F12.4°C 97% Calm Calm -- 30.15 in1021.0 mb - 0.00 in0.0 mm 0.00 in0.0 mm
12:55 AM 55.0°F12.8°C 54.2°F12.3°C 97% Calm Calm -- 30.15 in1021.0 mb - 0.00 in0.0 mm 0.00 in0.0 mm
01:00 AM 55.0°F12.8°C 54.2°F12.3°C 97% Calm Calm -- 30.15 in1021.0 mb - 0.00 in0.0 mm 0.00 in0.0 mm
01:10 AM 55.2°F12.9°C 54.4°F12.4°C 97% Calm Calm -- 30.15 in1021.0 mb - 0.00 in0.0 mm 0.00 in0.0 mm
01:15 AM 55.2°F12.9°C 54.4°F12.4°C 97% Calm Calm -- 30.15 in1021.0 mb - 0.00 in0.0 mm 0.00 in0.0 mm
01:20 AM 55.2°F12.9°C 54.4°F12.4°C 97% 2.3 mph W3.7 kmh W 3.5 mph5.6 kmh 30.15 in1021.0 mb - 0.00 in0.0 mm 0.00 in0.0 mm
01:25 AM 55.1°F12.8°C 54.2°F12.3°C 97% Calm Calm -- 30.15 in1021.0 mb - 0.00 in0.0 mm 0.00 in0.0 mm
01:30 AM 55.4°F13.0°C 55.1°F12.8°C 99% 1.2 mph W1.9 kmh W 3.5 mph5.6 kmh 30.15 in1021.0 mb - 0.00 in0.0 mm 0.00 in0.0 mm
01:35 AM 55.6°F13.1°C 55.3°F12.9°C 99% Calm Calm -- 30.15 in1021.0 mb - 0.00 in0.0 mm 0.00 in0.0 mm
01:40 AM 55.6°F13.1°C 55.3°F12.9°C 99% Calm Calm -- 30.15 in1021.0 mb - 0.00 in0.0 mm 0.00 in0.0 mm
01:45 AM 55.4°F13.0°C 55.1°F12.8°C 99% 1.2 mph W1.9 kmh W 3.5 mph5.6 kmh 30.15 in1021.0 mb - 0.00 in0.0 mm 0.00 in0.0 mm
01:50 AM 55.4°F13.0°C 55.1°F12.8°C 99% Calm Calm 3.5 mph5.6 kmh 30.15 in1021.0 mb - 0.00 in0.0 mm 0.00 in0.0 mm
01:55 AM 55.4°F13.0°C 55.1°F12.8°C 99% Calm Calm -- 30.15 in1021.0 mb - 0.00 in0.0 mm 0.00 in0.0 mm
02:00 AM 55.6°F13.1°C 55.3°F12.9°C 99% 2.3 mph NW3.7 kmh NW 3.5 mph5.6 kmh 30.15 in1021.0 mb - 0.00 in0.0 mm 0.00 in0.0 mm
02:10 AM 55.6°F13.1°C 55.3°F12.9°C 99% Calm Calm -- 30.15 in1021.0 mb - 0.00 in0.0 mm 0.00 in0.0 mm
02:15 AM 55.6°F13.1°C 55.3°F12.9°C 99% Calm Calm -- 30.15 in1021.0 mb - 0.00 in0.0 mm 0.00 in0.0 mm
02:20 AM 55.6°F13.1°C 55.3°F12.9°C 99% 1.2 mph W1.9 kmh W 3.5 mph5.6 kmh 30.15 in1021.0 mb - 0.00 in0.0 mm 0.00 in0.0 mm
02:25 AM 55.7°F13.2°C 55.5°F13.1°C 99% 3.5 mph W5.6 kmh W 3.5 mph5.6 kmh 30.15 in1021.0 mb - 0.00 in0.0 mm 0.00 in0.0 mm
02:30 AM 55.8°F13.2°C 55.5°F13.1°C 99% 3.5 mph W5.6 kmh W 4.6 mph7.4 kmh 30.15 in1021.0 mb - 0.00 in0.0 mm 0.00 in0.0 mm
02:35 AM 55.8°F13.2°C 55.5°F13.1°C 99% Calm Calm -- 30.15 in1021.0 mb - 0.00 in0.0 mm 0.00 in0.0 mm
02:40 AM 55.9°F13.3°C 55.7°F13.2°C 99% Calm Calm -- 30.15 in1021.0 mb - 0.00 in0.0 mm 0.00 in0.0 mm
02:45 AM 55.8°F13.2°C 55.5°F13.1°C 99% Calm Calm -- 30.15 in1021.0 mb - 0.00 in0.0 mm 0.00 in0.0 mm
02:50 AM 55.8°F13.2°C 55.5°F13.1°C 99% Calm Calm -- 30.15 in1021.0 mb - 0.00 in0.0 mm 0.00 in0.0 mm
02:55 AM 55.8°F13.2°C 55.5°F13.1°C 99% Calm Calm -- 30.15 in1021.0 mb - 0.00 in0.0 mm 0.00 in0.0 mm
03:00 AM 55.9°F13.3°C 55.7°F13.2°C 99% Calm Calm -- 30.15 in1021.0 mb - 0.00 in0.0 mm 0.00 in0.0 mm
03:10 AM 55.8°F13.2°C 55.5°F13.1°C 99% Calm Calm -- 30.15 in1021.0 mb - 0.00 in0.0 mm 0.00 in0.0 mm
03:15 AM 55.8°F13.2°C 55.5°F13.1°C 99% Calm Calm -- 30.15 in1021.0 mb - 0.00 in0.0 mm 0.00 in0.0 mm
03:20 AM 55.8°F13.2°C 55.5°F13.1°C 99% Calm Calm -- 30.15 in1021.0 mb - 0.00 in0.0 mm 0.00 in0.0 mm
03:25 AM 55.8°F13.2°C 55.5°F13.1°C 99% Calm Calm -- 30.15 in1021.0 mb - 0.00 in0.0 mm 0.00 in0.0 mm
03:30 AM 55.8°F13.2°C 55.5°F13.1°C 99% Calm Calm -- 30.15 in1021.0 mb - 0.00 in0.0 mm 0.00 in0.0 mm
03:35 AM 55.8°F13.2°C 55.5°F13.1°C 99% Calm Calm -- 30.15 in1021.0 mb - 0.00 in0.0 mm 0.00 in0.0 mm
03:40 AM 55.8°F13.2°C 55.5°F13.1°C 99% Calm Calm -- 30.15 in1021.0 mb - 0.00 in0.0 mm 0.00 in0.0 mm
03:45 AM 55.8°F13.2°C 55.5°F13.1°C 99% Calm Calm -- 30.15 in1021.0 mb - 0.00 in0.0 mm 0.00 in0.0 mm
03:50 AM 55.8°F13.2°C 55.5°F13.1°C 99% Calm Calm 1.2 mph1.9 kmh 30.15 in1021.0 mb - 0.00 in0.0 mm 0.00 in0.0 mm
03:55 AM 55.8°F13.2°C 55.5°F13.1°C 99% 2.3 mph W3.7 kmh W 3.5 mph5.6 kmh 30.15 in1021.0 mb - 0.00 in0.0 mm 0.00 in0.0 mm
04:00 AM 55.8°F13.2°C 55.5°F13.1°C 99% Calm Calm -- 30.15 in1021.0 mb - 0.00 in0.0 mm 0.00 in0.0 mm
04:10 AM 55.7°F13.2°C 55.5°F13.1°C 99% 1.2 mph NW1.9 kmh NW 2.3 mph3.7 kmh 30.12 in1020.0 mb - 0.00 in0.0 mm 0.00 in0.0 mm
04:15 AM 55.8°F13.2°C 55.5°F13.1°C 99% Calm Calm -- 30.12 in1020.0 mb - 0.00 in0.0 mm 0.00 in0.0 mm
04:20 AM 55.8°F13.2°C 55.5°F13.1°C 99% Calm Calm -- 30.12 in1020.0 mb - 0.00 in0.0 mm 0.00 in0.0 mm
04:25 AM 55.6°F13.1°C 55.3°F12.9°C 99% Calm Calm -- 30.12 in1020.0 mb - 0.00 in0.0 mm 0.00 in0.0 mm
04:30 AM 55.8°F13.2°C 55.5°F13.1°C 99% 2.3 mph NW3.7 kmh NW 3.5 mph5.6 kmh 30.12 in1020.0 mb - 0.00 in0.0 mm 0.00 in0.0 mm
04:35 AM 55.9°F13.3°C 55.7°F13.2°C 99% 3.5 mph W5.6 kmh W 4.6 mph7.4 kmh 30.12 in1020.0 mb - 0.00 in0.0 mm 0.00 in0.0 mm
04:40 AM 55.9°F13.3°C 55.7°F13.2°C 99% 3.5 mph W5.6 kmh W 5.8 mph9.3 kmh 30.12 in1020.0 mb - 0.00 in0.0 mm 0.00 in0.0 mm
04:45 AM 55.9°F13.3°C 55.7°F13.2°C 99% 2.3 mph NW3.7 kmh NW 5.8 mph9.3 kmh 30.12 in1020.0 mb - 0.00 in0.0 mm 0.00 in0.0 mm
04:50 AM 55.9°F13.3°C 55.7°F13.2°C 99% 3.5 mph NW5.6 kmh NW 4.6 mph7.4 kmh 30.12 in1020.0 mb - 0.00 in0.0 mm 0.00 in0.0 mm
04:55 AM 56.1°F13.4°C 55.8°F13.2°C 99% 1.2 mph WSW1.9 kmh WSW 4.6 mph7.4 kmh 30.12 in1020.0 mb - 0.00 in0.0 mm 0.00 in0.0 mm
05:00 AM 56.1°F13.4°C 55.8°F13.2°C 99% Calm Calm 1.2 mph1.9 kmh 30.12 in1020.0 mb - 0.00 in0.0 mm 0.00 in0.0 mm
05:10 AM 56.1°F13.4°C 55.8°F13.2°C 99% Calm Calm -- 30.12 in1020.0 mb - 0.00 in0.0 mm 0.00 in0.0 mm
05:15 AM 56.1°F13.4°C 55.8°F13.2°C 99% Calm Calm -- 30.12 in1020.0 mb - 0.00 in0.0 mm 0.00 in0.0 mm
05:20 AM 56.1°F13.4°C 55.8°F13.2°C 99% Calm Calm -- 30.12 in1020.0 mb - 0.00 in0.0 mm 0.00 in0.0 mm
05:25 AM 56.1°F13.4°C 55.8°F13.2°C 99% Calm Calm 2.3 mph3.7 kmh 30.12 in1020.0 mb - 0.00 in0.0 mm 0.00 in0.0 mm
05:30 AM 56.1°F13.4°C 55.8°F13.2°C 99% 1.2 mph W1.9 kmh W 3.5 mph5.6 kmh 30.12 in1020.0 mb - 0.00 in0.0 mm 0.00 in0.0 mm
05:35 AM 56.1°F13.4°C 55.8°F13.2°C 99% Calm Calm 1.2 mph1.9 kmh 30.12 in1020.0 mb - 0.00 in0.0 mm 0.00 in0.0 mm
05:40 AM 56.1°F13.4°C 55.8°F13.2°C 99% Calm Calm -- 30.12 in1020.0 mb - 0.00 in0.0 mm 0.00 in0.0 mm
05:45 AM 56.1°F13.4°C 55.8°F13.2°C 99% Calm Calm 1.2 mph1.9 kmh 30.12 in1020.0 mb - 0.00 in0.0 mm 0.00 in0.0 mm
05:50 AM 56.1°F13.4°C 55.8°F13.2°C 99% Calm Calm 1.2 mph1.9 kmh 30.12 in1020.0 mb - 0.00 in0.0 mm 0.00 in0.0 mm
05:55 AM 56.3°F13.5°C 56.0°F13.3°C 99% Calm Calm -- 30.12 in1020.0 mb - 0.00 in0.0 mm 0.00 in0.0 mm
06:00 AM 56.3°F13.5°C 56.0°F13.3°C 99% 1.2 mph W1.9 kmh W 3.5 mph5.6 kmh 30.12 in1020.0 mb - 0.00 in0.0 mm 0.00 in0.0 mm
06:10 AM 56.3°F13.5°C 56.0°F13.3°C 99% Calm Calm -- 30.12 in1020.0 mb - 0.00 in0.0 mm 0.00 in0.0 mm
06:15 AM 56.3°F13.5°C 56.0°F13.3°C 99% Calm Calm -- 30.12 in1020.0 mb - 0.00 in0.0 mm 0.00 in0.0 mm
06:20 AM 56.3°F13.5°C 56.0°F13.3°C 99% Calm Calm -- 30.12 in1020.0 mb - 0.00 in0.0 mm 0.00 in0.0 mm
06:25 AM 56.3°F13.5°C 56.0°F13.3°C 99% Calm Calm -- 30.12 in1020.0 mb - 0.00 in0.0 mm 0.00 in0.0 mm
06:30 AM 56.3°F13.5°C 56.0°F13.3°C 99% Calm Calm -- 30.12 in1020.0 mb - 0.00 in0.0 mm 0.00 in0.0 mm
06:35 AM 56.3°F13.5°C 56.0°F13.3°C 99% Calm Calm -- 30.12 in1020.0 mb - 0.00 in0.0 mm 0.00 in0.0 mm
06:40 AM 56.3°F13.5°C 56.0°F13.3°C 99% Calm Calm -- 30.12 in1020.0 mb - 0.00 in0.0 mm 0.00 in0.0 mm
06:45 AM 56.5°F13.6°C 56.2°F13.4°C 99% Calm Calm -- 30.12 in1020.0 mb - 0.00 in0.0 mm 0.00 in0.0 mm
06:50 AM 56.3°F13.5°C 56.0°F13.3°C 99% Calm Calm -- 30.12 in1020.0 mb - 0.00 in0.0 mm 0.00 in0.0 mm
06:55 AM 56.3°F13.5°C 56.0°F13.3°C 99% Calm Calm -- 30.12 in1020.0 mb - 0.00 in0.0 mm 0.00 in0.0 mm
07:00 AM 56.3°F13.5°C 56.0°F13.3°C 99% 2.3 mph W3.7 kmh W 3.5 mph5.6 kmh 30.12 in1020.0 mb - 0.00 in0.0 mm 0.00 in0.0 mm
07:10 AM 56.5°F13.6°C 56.2°F13.4°C 99% Calm Calm 1.2 mph1.9 kmh 30.12 in1020.0 mb - 0.00 in0.0 mm 0.00 in0.0 mm
07:15 AM 56.3°F13.5°C 56.0°F13.3°C 99% Calm Calm 1.2 mph1.9 kmh 30.12 in1020.0 mb - 0.00 in0.0 mm 0.00 in0.0 mm
07:20 AM 56.3°F13.5°C 56.0°F13.3°C 99% Calm Calm -- 30.12 in1020.0 mb - 0.00 in0.0 mm 0.00 in0.0 mm
07:25 AM 56.5°F13.6°C 56.2°F13.4°C 99% Calm Calm 1.2 mph1.9 kmh 30.12 in1020.0 mb - 0.00 in0.0 mm 0.00 in0.0 mm
07:30 AM 56.5°F13.6°C 56.2°F13.4°C 99% Calm Calm -- 30.12 in1020.0 mb - 0.00 in0.0 mm 0.00 in0.0 mm
07:35 AM 56.5°F13.6°C 56.2°F13.4°C 99% Calm Calm -- 30.12 in1020.0 mb - 0.00 in0.0 mm 0.00 in0.0 mm
07:40 AM 56.6°F13.7°C 56.4°F13.6°C 99% Calm Calm -- 30.12 in1020.0 mb - 0.00 in0.0 mm 0.00 in0.0 mm
07:45 AM 56.7°F13.7°C 56.4°F13.6°C 99% Calm Calm -- 30.12 in1020.0 mb - 0.00 in0.0 mm 0.00 in0.0 mm
07:50 AM 56.8°F13.8°C 56.6°F13.7°C 99% Calm Calm -- 30.12 in1020.0 mb - 0.00 in0.0 mm 0.00 in0.0 mm
07:55 AM 57.0°F13.9°C 56.7°F13.7°C 99% Calm Calm -- 30.12 in1020.0 mb - 0.00 in0.0 mm 0.00 in0.0 mm
08:00 AM 57.2°F14.0°C 56.9°F13.8°C 99% Calm Calm -- 30.12 in1020.0 mb - 0.00 in0.0 mm 0.00 in0.0 mm
08:10 AM 57.5°F14.2°C 57.3°F14.1°C 99% Calm Calm -- 30.12 in1020.0 mb - 0.00 in0.0 mm 0.00 in0.0 mm
08:15 AM 57.6°F14.2°C 57.3°F14.1°C 99% Calm Calm 1.2 mph1.9 kmh 30.12 in1020.0 mb - 0.00 in0.0 mm 0.00 in0.0 mm
08:20 AM 57.7°F14.3°C 57.5°F14.2°C 99% Calm Calm -- 30.12 in1020.0 mb - 0.00 in0.0 mm 0.00 in0.0 mm
08:25 AM 57.7°F14.3°C 57.5°F14.2°C 99% Calm Calm -- 30.12 in1020.0 mb - 0.00 in0.0 mm 0.00 in0.0 mm
08:30 AM 57.9°F14.4°C 57.6°F14.2°C 99% 1.2 mph W1.9 kmh W 1.2 mph1.9 kmh 30.12 in1020.0 mb - 0.00 in0.0 mm 0.00 in0.0 mm
08:35 AM 58.1°F14.5°C 57.8°F14.3°C 99% Calm Calm -- 30.12 in1020.0 mb - 0.00 in0.0 mm 0.00 in0.0 mm
08:40 AM 58.3°F14.6°C 58.0°F14.4°C 99% Calm Calm -- 30.12 in1020.0 mb - 0.00 in0.0 mm 0.00 in0.0 mm
08:45 AM 58.5°F14.7°C 58.2°F14.6°C 99% Calm Calm -- 30.12 in1020.0 mb - 0.00 in0.0 mm 0.00 in0.0 mm
08:50 AM 58.6°F14.8°C 58.3°F14.6°C 99% Calm Calm -- 30.12 in1020.0 mb - 0.00 in0.0 mm 0.00 in0.0 mm
08:55 AM 58.8°F14.9°C 58.5°F14.7°C 99% Calm Calm -- 30.12 in1020.0 mb - 0.00 in0.0 mm 0.00 in0.0 mm
09:00 AM 59.0°F15.0°C 58.7°F14.8°C 99% Calm Calm 1.2 mph1.9 kmh 30.12 in1020.0 mb - 0.00 in0.0 mm 0.00 in0.0 mm
09:10 AM 59.5°F15.3°C 59.3°F15.2°C 99% 3.5 mph NW5.6 kmh NW 5.8 mph9.3 kmh 30.12 in1020.0 mb - 0.00 in0.0 mm 0.00 in0.0 mm
09:15 AM 59.5°F15.3°C 59.3°F15.2°C 99% 2.3 mph W3.7 kmh W 3.5 mph5.6 kmh 30.12 in1020.0 mb - 0.00 in0.0 mm 0.00 in0.0 mm
09:20 AM 59.7°F15.4°C 59.4°F15.2°C 99% 1.2 mph W1.9 kmh W 3.5 mph5.6 kmh 30.12 in1020.0 mb - 0.00 in0.0 mm 0.00 in0.0 mm
09:25 AM 59.9°F15.5°C 59.6°F15.3°C 99% Calm Calm 1.2 mph1.9 kmh 30.12 in1020.0 mb - 0.00 in0.0 mm 0.00 in0.0 mm
09:30 AM 60.3°F15.7°C 60.0°F15.6°C 99% Calm Calm -- 30.12 in1020.0 mb - 0.00 in0.0 mm 0.00 in0.0 mm
09:35 AM 60.6°F15.9°C 60.3°F15.7°C 99% Calm Calm -- 30.12 in1020.0 mb - 0.00 in0.0 mm 0.00 in0.0 mm
09:40 AM 61.0°F16.1°C 60.4°F15.8°C 98% Calm Calm -- 30.12 in1020.0 mb - 0.00 in0.0 mm 0.00 in0.0 mm
09:45 AM 61.3°F16.3°C 60.8°F16.0°C 98% Calm Calm -- 30.12 in1020.0 mb - 0.00 in0.0 mm 0.00 in0.0 mm
09:50 AM 61.7°F16.5°C 61.1°F16.2°C 98% Calm Calm -- 30.12 in1020.0 mb - 0.00 in0.0 mm 0.00 in0.0 mm
09:55 AM 62.1°F16.7°C 61.5°F16.4°C 98% Calm Calm -- 30.12 in1020.0 mb - 0.00 in0.0 mm 0.00 in0.0 mm
10:00 AM 62.6°F17.0°C 61.7°F16.5°C 97% 2.3 mph E3.7 kmh E 4.6 mph7.4 kmh 30.12 in1020.0 mb - 0.00 in0.0 mm 0.00 in0.0 mm
10:10 AM 62.8°F17.1°C 61.9°F16.6°C 97% 1.2 mph E1.9 kmh E 3.5 mph5.6 kmh 30.15 in1021.0 mb - 0.00 in0.0 mm 0.00 in0.0 mm
10:15 AM 63.0°F17.2°C 62.1°F16.7°C 97% Calm Calm -- 30.15 in1021.0 mb - 0.00 in0.0 mm 0.00 in0.0 mm
10:20 AM 63.3°F17.4°C 62.4°F16.9°C 97% Calm Calm -- 30.15 in1021.0 mb - 0.00 in0.0 mm 0.00 in0.0 mm
10:25 AM 63.5°F17.5°C 62.6°F17.0°C 97% 2.3 mph E3.7 kmh E 3.5 mph5.6 kmh 30.15 in1021.0 mb - 0.00 in0.0 mm 0.00 in0.0 mm
10:30 AM 63.7°F17.6°C 62.8°F17.1°C 97% 2.3 mph E3.7 kmh E 3.5 mph5.6 kmh 30.15 in1021.0 mb - 0.00 in0.0 mm 0.00 in0.0 mm
10:35 AM 64.0°F17.8°C 63.2°F17.3°C 97% 2.3 mph E3.7 kmh E 3.5 mph5.6 kmh 30.15 in1021.0 mb - 0.00 in0.0 mm 0.00 in0.0 mm
10:40 AM 64.6°F18.1°C 64.3°F17.9°C 99% 2.3 mph SE3.7 kmh SE 3.5 mph5.6 kmh 30.15 in1021.0 mb - 0.00 in0.0 mm 0.00 in0.0 mm
10:45 AM 65.5°F18.6°C 65.2°F18.4°C 99% 3.5 mph NE5.6 kmh NE 5.8 mph9.3 kmh 30.15 in1021.0 mb - 0.00 in0.0 mm 0.00 in0.0 mm
10:50 AM 66.2°F19.0°C 65.9°F18.8°C 99% 2.3 mph E3.7 kmh E 3.5 mph5.6 kmh 30.15 in1021.0 mb - 0.00 in0.0 mm 0.00 in0.0 mm
10:55 AM 66.7°F19.3°C 66.5°F19.2°C 99% 1.2 mph SE1.9 kmh SE 2.3 mph3.7 kmh 30.15 in1021.0 mb - 0.00 in0.0 mm 0.00 in0.0 mm
11:00 AM 67.5°F19.7°C 67.2°F19.6°C 99% 1.2 mph E1.9 kmh E 3.5 mph5.6 kmh 30.15 in1021.0 mb - 0.00 in0.0 mm 0.00 in0.0 mm
11:10 AM 67.6°F19.8°C 67.3°F19.6°C 99% 3.5 mph E5.6 kmh E 4.6 mph7.4 kmh 30.15 in1021.0 mb - 0.00 in0.0 mm 0.00 in0.0 mm
11:15 AM 67.6°F19.8°C 67.3°F19.6°C 99% 3.5 mph E5.6 kmh E 3.5 mph5.6 kmh 30.15 in1021.0 mb - 0.00 in0.0 mm 0.00 in0.0 mm
11:20 AM 68.2°F20.1°C 67.9°F19.9°C 99% 3.5 mph SE5.6 kmh SE 4.6 mph7.4 kmh 30.15 in1021.0 mb - 0.00 in0.0 mm 0.00 in0.0 mm
11:25 AM 68.5°F20.3°C 68.2°F20.1°C 99% 3.5 mph SE5.6 kmh SE 5.8 mph9.3 kmh 30.15 in1021.0 mb - 0.00 in0.0 mm 0.00 in0.0 mm
11:30 AM 68.9°F20.5°C 68.6°F20.3°C 99% 3.5 mph E5.6 kmh E 4.6 mph7.4 kmh 30.15 in1021.0 mb - 0.00 in0.0 mm 0.00 in0.0 mm
11:35 AM 69.1°F20.6°C 68.8°F20.4°C 99% 4.6 mph NE7.4 kmh NE 6.9 mph11.1 kmh 30.15 in1021.0 mb - 0.00 in0.0 mm 0.00 in0.0 mm
11:40 AM 69.3°F20.7°C 69.0°F20.6°C 99% 3.5 mph E5.6 kmh E 5.8 mph9.3 kmh 30.15 in1021.0 mb - 0.00 in0.0 mm 0.00 in0.0 mm
11:45 AM 69.1°F20.6°C 68.8°F20.4°C 99% 3.5 mph NE5.6 kmh NE 4.6 mph7.4 kmh 30.15 in1021.0 mb - 0.00 in0.0 mm 0.00 in0.0 mm
11:50 AM 69.1°F20.6°C 68.8°F20.4°C 99% 3.5 mph E5.6 kmh E 5.8 mph9.3 kmh 30.15 in1021.0 mb - 0.00 in0.0 mm 0.00 in0.0 mm
11:55 AM 68.7°F20.4°C 68.1°F20.1°C 98% 3.5 mph NE5.6 kmh NE 5.8 mph9.3 kmh 30.15 in1021.0 mb - 0.00 in0.0 mm 0.00 in0.0 mm
12:00 PM 68.7°F20.4°C 67.8°F19.9°C 97% 3.5 mph E5.6 kmh E 5.8 mph9.3 kmh 30.15 in1021.0 mb - 0.00 in0.0 mm 0.00 in0.0 mm
12:10 PM 68.9°F20.5°C 66.8°F19.3°C 93% 5.8 mph E9.3 kmh E 8.1 mph13.0 kmh 30.15 in1021.0 mb - 0.00 in0.0 mm 0.00 in0.0 mm
12:15 PM 69.3°F20.7°C 66.8°F19.3°C 92% 4.6 mph E7.4 kmh E 5.8 mph9.3 kmh 30.15 in1021.0 mb - 0.00 in0.0 mm 0.00 in0.0 mm
12:20 PM 69.4°F20.8°C 66.7°F19.3°C 91% 5.8 mph E9.3 kmh E 6.9 mph11.1 kmh 30.15 in1021.0 mb - 0.00 in0.0 mm 0.00 in0.0 mm
12:25 PM 69.3°F20.7°C 65.2°F18.4°C 87% 5.8 mph NE9.3 kmh NE 8.1 mph13.0 kmh 30.15 in1021.0 mb - 0.00 in0.0 mm 0.00 in0.0 mm
12:30 PM 69.2°F20.7°C 64.5°F18.1°C 85% 5.8 mph E9.3 kmh E 8.1 mph13.0 kmh 30.15 in1021.0 mb - 0.00 in0.0 mm 0.00 in0.0 mm
12:35 PM 69.4°F20.8°C 64.4°F18.0°C 84% 4.6 mph E7.4 kmh E 6.9 mph11.1 kmh 30.15 in1021.0 mb - 0.00 in0.0 mm 0.00 in0.0 mm
12:40 PM 69.4°F20.8°C 64.4°F18.0°C 84% 4.6 mph E7.4 kmh E 5.8 mph9.3 kmh 30.15 in1021.0 mb - 0.00 in0.0 mm 0.00 in0.0 mm
12:45 PM 69.8°F21.0°C 64.4°F18.0°C 83% 6.9 mph E11.1 kmh E 8.1 mph13.0 kmh 30.15 in1021.0 mb - 0.00 in0.0 mm 0.00 in0.0 mm
12:50 PM 70.2°F21.2°C 64.4°F18.0°C 82% 5.8 mph NE9.3 kmh NE 6.9 mph11.1 kmh 30.15 in1021.0 mb - 0.00 in0.0 mm 0.00 in0.0 mm
12:55 PM 70.3°F21.3°C 63.9°F17.7°C 80% 4.6 mph ENE7.4 kmh ENE 6.9 mph11.1 kmh 30.15 in1021.0 mb - 0.00 in0.0 mm 0.00 in0.0 mm
01:00 PM 70.3°F21.3°C 63.5°F17.5°C 79% 5.8 mph E9.3 kmh E 6.9 mph11.1 kmh 30.15 in1021.0 mb - 0.00 in0.0 mm 0.00 in0.0 mm
01:10 PM 70.3°F21.3°C 63.2°F17.3°C 78% 5.8 mph ENE9.3 kmh ENE 6.9 mph11.1 kmh 30.12 in1020.0 mb - 0.00 in0.0 mm 0.00 in0.0 mm
01:15 PM 70.2°F21.2°C 62.6°F17.0°C 77% 4.6 mph ENE7.4 kmh ENE 5.8 mph9.3 kmh 30.12 in1020.0 mb - 0.00 in0.0 mm 0.00 in0.0 mm
01:20 PM 70.2°F21.2°C 62.6°F17.0°C 77% 4.6 mph E7.4 kmh E 5.8 mph9.3 kmh 30.12 in1020.0 mb - 0.00 in0.0 mm 0.00 in0.0 mm
01:25 PM 70.3°F21.3°C 62.8°F17.1°C 77% 4.6 mph NE7.4 kmh NE 6.9 mph11.1 kmh 30.12 in1020.0 mb - 0.00 in0.0 mm 0.00 in0.0 mm
01:30 PM 70.5°F21.4°C 62.6°F17.0°C 76% 5.8 mph NE9.3 kmh NE 8.1 mph13.0 kmh 30.12 in1020.0 mb - 0.00 in0.0 mm 0.00 in0.0 mm
01:35 PM 70.7°F21.5°C 62.8°F17.1°C 76% 5.8 mph E9.3 kmh E 8.1 mph13.0 kmh 30.12 in1020.0 mb - 0.00 in0.0 mm 0.00 in0.0 mm
01:40 PM 70.9°F21.6°C 62.6°F17.0°C 75% 3.5 mph NE5.6 kmh NE 5.8 mph9.3 kmh 30.12 in1020.0 mb - 0.00 in0.0 mm 0.00 in0.0 mm
01:45 PM 71.1°F21.7°C 62.4°F16.9°C 74% 5.8 mph NE9.3 kmh NE 8.1 mph13.0 kmh 30.12 in1020.0 mb - 0.00 in0.0 mm 0.00 in0.0 mm
01:50 PM 71.4°F21.9°C 62.7°F17.1°C 74% 4.6 mph ENE7.4 kmh ENE 5.8 mph9.3 kmh 30.12 in1020.0 mb - 0.00 in0.0 mm 0.00 in0.0 mm
01:55 PM 72.0°F22.2°C 62.8°F17.1°C 73% 3.5 mph SE5.6 kmh SE 6.9 mph11.1 kmh 30.12 in1020.0 mb - 0.00 in0.0 mm 0.00 in0.0 mm
02:00 PM 72.3°F22.4°C 62.0°F16.7°C 70% 3.5 mph E5.6 kmh E 10.4 mph16.7 kmh 30.12 in1020.0 mb - 0.00 in0.0 mm 0.00 in0.0 mm
02:10 PM 72.8°F22.7°C 62.5°F16.9°C 70% 1.2 mph SE1.9 kmh SE 4.6 mph7.4 kmh 30.09 in1019.0 mb - 0.00 in0.0 mm 0.00 in0.0 mm
02:15 PM 73.2°F22.9°C 59.4°F15.2°C 62% 2.3 mph S3.7 kmh S 8.1 mph13.0 kmh 30.09 in1019.0 mb - 0.00 in0.0 mm 0.00 in0.0 mm
02:20 PM 73.4°F23.0°C 60.0°F15.6°C 63% 1.2 mph SE1.9 kmh SE 3.5 mph5.6 kmh 30.09 in1019.0 mb - 0.00 in0.0 mm 0.00 in0.0 mm
02:25 PM 73.9°F23.3°C 59.6°F15.3°C 61% 3.5 mph E5.6 kmh E 5.8 mph9.3 kmh 30.09 in1019.0 mb - 0.00 in0.0 mm 0.00 in0.0 mm
02:30 PM 74.6°F23.7°C 60.3°F15.7°C 61% 1.2 mph E1.9 kmh E 3.5 mph5.6 kmh 30.09 in1019.0 mb - 0.00 in0.0 mm 0.00 in0.0 mm
02:35 PM 75.2°F24.0°C 60.3°F15.7°C 60% 3.5 mph SE5.6 kmh SE 6.9 mph11.1 kmh 30.09 in1019.0 mb - 0.00 in0.0 mm 0.00 in0.0 mm
02:40 PM 75.2°F24.0°C 58.4°F14.7°C 56% 2.3 mph S3.7 kmh S 3.5 mph5.6 kmh 30.09 in1019.0 mb - 0.00 in0.0 mm 0.00 in0.0 mm
02:45 PM 75.7°F24.3°C 59.9°F15.5°C 58% 1.2 mph NE1.9 kmh NE 3.5 mph5.6 kmh 30.09 in1019.0 mb - 0.00 in0.0 mm 0.00 in0.0 mm
02:50 PM 76.3°F24.6°C 59.4°F15.2°C 56% 3.5 mph S5.6 kmh S 5.8 mph9.3 kmh 30.09 in1019.0 mb - 0.00 in0.0 mm 0.00 in0.0 mm
02:55 PM 76.3°F24.6°C 58.4°F14.7°C 54% 3.5 mph E5.6 kmh E 3.5 mph5.6 kmh 30.09 in1019.0 mb - 0.00 in0.0 mm 0.00 in0.0 mm
03:00 PM 76.1°F24.5°C 59.3°F15.2°C 56% 1.2 mph ESE1.9 kmh ESE 3.5 mph5.6 kmh 30.09 in1019.0 mb - 0.00 in0.0 mm 0.00 in0.0 mm
03:10 PM 76.3°F24.6°C 57.9°F14.4°C 53% 2.3 mph WNW3.7 kmh WNW 3.5 mph5.6 kmh 30.09 in1019.0 mb - 0.00 in0.0 mm 0.00 in0.0 mm
03:15 PM 76.6°F24.8°C 57.2°F14.0°C 51% 5.8 mph W9.3 kmh W 8.1 mph13.0 kmh 30.09 in1019.0 mb - 0.00 in0.0 mm 0.00 in0.0 mm
03:20 PM 76.5°F24.7°C 57.0°F13.9°C 51% 3.5 mph W5.6 kmh W 6.9 mph11.1 kmh 30.09 in1019.0 mb - 0.00 in0.0 mm 0.00 in0.0 mm
03:25 PM 76.5°F24.7°C 57.5°F14.2°C 52% 3.5 mph S5.6 kmh S 8.1 mph13.0 kmh 30.09 in1019.0 mb - 0.00 in0.0 mm 0.00 in0.0 mm
03:30 PM 76.6°F24.8°C 56.6°F13.7°C 50% 2.3 mph NE3.7 kmh NE 8.1 mph13.0 kmh 30.09 in1019.0 mb - 0.00 in0.0 mm 0.00 in0.0 mm
03:35 PM 76.3°F24.6°C 56.3°F13.5°C 50% 8.1 mph E13.0 kmh E 10.4 mph16.7 kmh 30.09 in1019.0 mb - 0.00 in0.0 mm 0.00 in0.0 mm
03:40 PM 76.1°F24.5°C 55.5°F13.1°C 49% 2.3 mph NE3.7 kmh NE 4.6 mph7.4 kmh 30.09 in1019.0 mb - 0.00 in0.0 mm 0.00 in0.0 mm
03:45 PM 76.1°F24.5°C 54.4°F12.4°C 47% 3.5 mph E5.6 kmh E 5.8 mph9.3 kmh 30.09 in1019.0 mb - 0.00 in0.0 mm 0.00 in0.0 mm
03:50 PM 76.1°F24.5°C 55.0°F12.8°C 48% 1.2 mph E1.9 kmh E 3.5 mph5.6 kmh 30.09 in1019.0 mb - 0.00 in0.0 mm 0.00 in0.0 mm
03:55 PM 76.3°F24.6°C 57.4°F14.1°C 52% 4.6 mph E7.4 kmh E 8.1 mph13.0 kmh 30.09 in1019.0 mb - 0.00 in0.0 mm 0.00 in0.0 mm
04:00 PM 76.1°F24.5°C 57.2°F14.0°C 52% 2.3 mph E3.7 kmh E 4.6 mph7.4 kmh 30.09 in1019.0 mb - 0.00 in0.0 mm 0.00 in0.0 mm
04:10 PM 74.9°F23.8°C 57.6°F14.2°C 55% 3.5 mph ENE5.6 kmh ENE 8.1 mph13.0 kmh 30.06 in1017.9 mb - 0.00 in0.0 mm 0.00 in0.0 mm
04:15 PM 74.0°F23.3°C 56.8°F13.8°C 55% 6.9 mph E11.1 kmh E 10.4 mph16.7 kmh 30.06 in1017.9 mb - 0.00 in0.0 mm 0.00 in0.0 mm
04:20 PM 73.2°F22.9°C 57.1°F13.9°C 57% 5.8 mph NE9.3 kmh NE 5.8 mph9.3 kmh 30.06 in1017.9 mb - 0.00 in0.0 mm 0.00 in0.0 mm
04:25 PM 72.7°F22.6°C 57.5°F14.2°C 59% 8.1 mph NE13.0 kmh NE 10.4 mph16.7 kmh 30.06 in1017.9 mb - 0.00 in0.0 mm 0.00 in0.0 mm
04:30 PM 72.2°F22.3°C 57.5°F14.2°C 60% 5.8 mph E9.3 kmh E 8.1 mph13.0 kmh 30.06 in1017.9 mb - 0.00 in0.0 mm 0.00 in0.0 mm
04:35 PM 72.1°F22.3°C 57.9°F14.4°C 61% 6.9 mph NE11.1 kmh NE 9.2 mph14.8 kmh 30.06 in1017.9 mb - 0.00 in0.0 mm 0.00 in0.0 mm
04:40 PM 72.0°F22.2°C 57.8°F14.3°C 61% 3.5 mph ENE5.6 kmh ENE 6.9 mph11.1 kmh 30.06 in1017.9 mb - 0.00 in0.0 mm 0.00 in0.0 mm
04:45 PM 71.8°F22.1°C 57.6°F14.2°C 61% 5.8 mph ESE9.3 kmh ESE 5.8 mph9.3 kmh 30.06 in1017.9 mb - 0.00 in0.0 mm 0.00 in0.0 mm
04:50 PM 71.6°F22.0°C 57.0°F13.9°C 60% 5.8 mph NE9.3 kmh NE 8.1 mph13.0 kmh 30.06 in1017.9 mb - 0.00 in0.0 mm 0.00 in0.0 mm
04:55 PM 71.6°F22.0°C 57.0°F13.9°C 60% 6.9 mph ENE11.1 kmh ENE 8.1 mph13.0 kmh 30.06 in1017.9 mb - 0.00 in0.0 mm 0.00 in0.0 mm
05:00 PM 71.6°F22.0°C 57.4°F14.1°C 61% 3.5 mph E5.6 kmh E 5.8 mph9.3 kmh 30.06 in1017.9 mb - 0.00 in0.0 mm 0.00 in0.0 mm
05:10 PM 71.6°F22.0°C 58.3°F14.6°C 63% 5.8 mph NE9.3 kmh NE 6.9 mph11.1 kmh 30.03 in1016.9 mb - 0.00 in0.0 mm 0.00 in0.0 mm
05:15 PM 71.4°F21.9°C 59.0°F15.0°C 65% 3.5 mph NE5.6 kmh NE 4.6 mph7.4 kmh 30.03 in1016.9 mb - 0.00 in0.0 mm 0.00 in0.0 mm
05:20 PM 71.2°F21.8°C 58.9°F14.9°C 65% 3.5 mph NE5.6 kmh NE 3.5 mph5.6 kmh 30.03 in1016.9 mb - 0.00 in0.0 mm 0.00 in0.0 mm
05:25 PM 71.2°F21.8°C 58.9°F14.9°C 65% 1.2 mph NE1.9 kmh NE 1.2 mph1.9 kmh 30.03 in1016.9 mb - 0.00 in0.0 mm 0.00 in0.0 mm
05:30 PM 71.1°F21.7°C 59.1°F15.1°C 66% 2.3 mph W3.7 kmh W 3.5 mph5.6 kmh 30.03 in1016.9 mb - 0.00 in0.0 mm 0.00 in0.0 mm
05:35 PM 70.9°F21.6°C 60.6°F15.9°C 70% 8.1 mph W13.0 kmh W 12.7 mph20.4 kmh 30.03 in1016.9 mb - 0.00 in0.0 mm 0.00 in0.0 mm
05:40 PM 69.8°F21.0°C 60.8°F16.0°C 73% 2.3 mph SW3.7 kmh SW 4.6 mph7.4 kmh 30.03 in1016.9 mb - 0.00 in0.0 mm 0.00 in0.0 mm
05:45 PM 69.3°F20.7°C 60.6°F15.9°C 74% 4.6 mph W7.4 kmh W 8.1 mph13.0 kmh 30.03 in1016.9 mb - 0.00 in0.0 mm 0.00 in0.0 mm
05:50 PM 68.7°F20.4°C 60.5°F15.8°C 75% 5.8 mph NW9.3 kmh NW 5.8 mph9.3 kmh 30.03 in1016.9 mb - 0.00 in0.0 mm 0.00 in0.0 mm
05:55 PM 68.2°F20.1°C 60.3°F15.7°C 76% 5.8 mph NW9.3 kmh NW 8.1 mph13.0 kmh 30.03 in1016.9 mb - 0.00 in0.0 mm 0.00 in0.0 mm
06:00 PM 67.6°F19.8°C 60.5°F15.8°C 78% 4.6 mph NW7.4 kmh NW 8.1 mph13.0 kmh 30.03 in1016.9 mb - 0.01 in0.3 mm 0.01 in0.3 mm
06:10 PM 66.2°F19.0°C 59.8°F15.4°C 80% Calm Calm 1.2 mph1.9 kmh 30.03 in1016.9 mb - 0.05 in1.3 mm 0.05 in1.3 mm
06:15 PM 65.8°F18.8°C 60.5°F15.8°C 83% 1.2 mph SW1.9 kmh SW 2.3 mph3.7 kmh 30.03 in1016.9 mb - 0.06 in1.5 mm 0.06 in1.5 mm
06:20 PM 65.5°F18.6°C 60.8°F16.0°C 85% 2.3 mph WSW3.7 kmh WSW 3.5 mph5.6 kmh 30.03 in1016.9 mb - 0.06 in1.5 mm 0.06 in1.5 mm
06:25 PM 65.1°F18.4°C 60.5°F15.8°C 85% 3.5 mph E5.6 kmh E 3.5 mph5.6 kmh 30.03 in1016.9 mb - 0.06 in1.5 mm 0.06 in1.5 mm
06:30 PM 64.8°F18.2°C 60.5°F15.8°C 86% Calm Calm -- 30.03 in1016.9 mb - 0.06 in1.5 mm 0.06 in1.5 mm
06:35 PM 64.6°F18.1°C 60.6°F15.9°C 87% 1.2 mph SE1.9 kmh SE 1.2 mph1.9 kmh 30.03 in1016.9 mb - 0.06 in1.5 mm 0.06 in1.5 mm
06:40 PM 64.6°F18.1°C 60.6°F15.9°C 87% 3.5 mph NE5.6 kmh NE 5.8 mph9.3 kmh 30.03 in1016.9 mb - 0.06 in1.5 mm 0.06 in1.5 mm
06:45 PM 64.4°F18.0°C 61.1°F16.2°C 89% 1.2 mph NE1.9 kmh NE 2.3 mph3.7 kmh 30.03 in1016.9 mb - 0.06 in1.5 mm 0.06 in1.5 mm
06:50 PM 64.2°F17.9°C 60.9°F16.1°C 89% 2.3 mph NE3.7 kmh NE 3.5 mph5.6 kmh 30.03 in1016.9 mb - 0.06 in1.5 mm 0.06 in1.5 mm
06:55 PM 64.2°F17.9°C 61.2°F16.2°C 90% 1.2 mph NE1.9 kmh NE 2.3 mph3.7 kmh 30.03 in1016.9 mb - 0.06 in1.5 mm 0.06 in1.5 mm
07:00 PM 64.2°F17.9°C 61.2°F16.2°C 90% Calm Calm -- 30.03 in1016.9 mb - 0.05 in1.3 mm 0.06 in1.5 mm
07:10 PM 64.0°F17.8°C 61.4°F16.3°C 91% 1.2 mph SE1.9 kmh SE 3.5 mph5.6 kmh 30.03 in1016.9 mb - 0.01 in0.3 mm 0.06 in1.5 mm
07:15 PM 63.7°F17.6°C 61.0°F16.1°C 91% 1.2 mph NW1.9 kmh NW 2.3 mph3.7 kmh 30.03 in1016.9 mb - 0.00 in0.0 mm 0.06 in1.5 mm
07:20 PM 63.5°F17.5°C 60.8°F16.0°C 91% Calm Calm -- 30.03 in1016.9 mb - 0.00 in0.0 mm 0.06 in1.5 mm
07:25 PM 63.1°F17.3°C 60.5°F15.8°C 91% Calm Calm 1.2 mph1.9 kmh 30.03 in1016.9 mb - 0.00 in0.0 mm 0.06 in1.5 mm
07:30 PM 63.0°F17.2°C 60.3°F15.7°C 91% Calm Calm 1.2 mph1.9 kmh 30.03 in1016.9 mb - 0.00 in0.0 mm 0.06 in1.5 mm
07:35 PM 62.8°F17.1°C 60.4°F15.8°C 92% 2.3 mph W3.7 kmh W 3.5 mph5.6 kmh 30.03 in1016.9 mb - 0.00 in0.0 mm 0.06 in1.5 mm
07:40 PM 62.6°F17.0°C 60.2°F15.7°C 92% Calm Calm 1.2 mph1.9 kmh 30.03 in1016.9 mb - 0.00 in0.0 mm 0.06 in1.5 mm
07:45 PM 62.6°F17.0°C 60.2°F15.7°C 92% 3.5 mph W5.6 kmh W 5.8 mph9.3 kmh 30.03 in1016.9 mb - 0.00 in0.0 mm 0.06 in1.5 mm
07:50 PM 62.4°F16.9°C 60.7°F15.9°C 94% 2.3 mph NW3.7 kmh NW 3.5 mph5.6 kmh 30.03 in1016.9 mb - 0.00 in0.0 mm 0.06 in1.5 mm
07:55 PM 62.4°F16.9°C 60.7°F15.9°C 94% 3.5 mph NW5.6 kmh NW 5.8 mph9.3 kmh 30.03 in1016.9 mb - 0.00 in0.0 mm 0.06 in1.5 mm
08:00 PM 62.4°F16.9°C 60.7°F15.9°C 94% 3.5 mph W5.6 kmh W 5.8 mph9.3 kmh 30.03 in1016.9 mb - 0.00 in0.0 mm 0.06 in1.5 mm
08:10 PM 62.2°F16.8°C 60.8°F16.0°C 95% 5.8 mph W9.3 kmh W 6.9 mph11.1 kmh 30.03 in1016.9 mb - 0.00 in0.0 mm 0.06 in1.5 mm
08:15 PM 62.2°F16.8°C 61.1°F16.2°C 96% 3.5 mph NW5.6 kmh NW 4.6 mph7.4 kmh 30.03 in1016.9 mb - 0.00 in0.0 mm 0.06 in1.5 mm
08:20 PM 62.2°F16.8°C 61.1°F16.2°C 96% Calm Calm 1.2 mph1.9 kmh 30.03 in1016.9 mb - 0.00 in0.0 mm 0.06 in1.5 mm
08:25 PM 62.2°F16.8°C 61.1°F16.2°C 96% Calm Calm -- 30.03 in1016.9 mb - 0.00 in0.0 mm 0.06 in1.5 mm
08:30 PM 62.1°F16.7°C 60.9°F16.1°C 96% 3.5 mph W5.6 kmh W 5.8 mph9.3 kmh 30.03 in1016.9 mb - 0.00 in0.0 mm 0.06 in1.5 mm
08:35 PM 62.1°F16.7°C 60.9°F16.1°C 96% 5.8 mph W9.3 kmh W 6.9 mph11.1 kmh 30.03 in1016.9 mb - 0.00 in0.0 mm 0.06 in1.5 mm
08:40 PM 62.1°F16.7°C 61.2°F16.2°C 97% 5.8 mph W9.3 kmh W 8.1 mph13.0 kmh 30.03 in1016.9 mb - 0.00 in0.0 mm 0.06 in1.5 mm
08:45 PM 62.1°F16.7°C 61.2°F16.2°C 97% 6.9 mph SW11.1 kmh SW 8.1 mph13.0 kmh 30.03 in1016.9 mb - 0.00 in0.0 mm 0.06 in1.5 mm
08:50 PM 61.9°F16.6°C 61.3°F16.3°C 98% 3.5 mph NW5.6 kmh NW 5.8 mph9.3 kmh 30.03 in1016.9 mb - 0.00 in0.0 mm 0.06 in1.5 mm
08:55 PM 61.9°F16.6°C 61.3°F16.3°C 98% Calm Calm -- 30.03 in1016.9 mb - 0.00 in0.0 mm 0.06 in1.5 mm
09:00 PM 61.7°F16.5°C 61.1°F16.2°C 98% Calm Calm -- 30.03 in1016.9 mb - 0.00 in0.0 mm 0.06 in1.5 mm
09:10 PM 61.5°F16.4°C 61.0°F16.1°C 98% Calm Calm -- 30.03 in1016.9 mb - 0.00 in0.0 mm 0.06 in1.5 mm
09:15 PM 61.7°F16.5°C 60.9°F16.1°C 97% Calm Calm -- 30.03 in1016.9 mb - 0.00 in0.0 mm 0.06 in1.5 mm
09:20 PM 61.7°F16.5°C 60.8°F16.0°C 97% Calm Calm -- 30.03 in1016.9 mb - 0.00 in0.0 mm 0.06 in1.5 mm
09:25 PM 61.7°F16.5°C 60.8°F16.0°C 97% Calm Calm -- 30.03 in1016.9 mb - 0.00 in0.0 mm 0.06 in1.5 mm
09:30 PM 61.4°F16.3°C 60.8°F16.0°C 98% 2.3 mph W3.7 kmh W 3.5 mph5.6 kmh 30.03 in1016.9 mb - 0.00 in0.0 mm 0.06 in1.5 mm
09:35 PM 61.3°F16.3°C 60.8°F16.0°C 98% 3.5 mph W5.6 kmh W 3.5 mph5.6 kmh 30.03 in1016.9 mb - 0.00 in0.0 mm 0.06 in1.5 mm
09:40 PM 61.5°F16.4°C 60.9°F16.1°C 98% Calm Calm -- 30.03 in1016.9 mb - 0.00 in0.0 mm 0.06 in1.5 mm
09:45 PM 61.3°F16.3°C 60.8°F16.0°C 98% Calm Calm -- 30.03 in1016.9 mb - 0.00 in0.0 mm 0.06 in1.5 mm
09:50 PM 61.3°F16.3°C 60.8°F16.0°C 98% Calm Calm -- 30.03 in1016.9 mb - 0.00 in0.0 mm 0.06 in1.5 mm
09:55 PM 61.2°F16.2°C 60.6°F15.9°C 98% Calm Calm -- 30.03 in1016.9 mb - 0.00 in0.0 mm 0.06 in1.5 mm
10:00 PM 61.2°F16.2°C 60.6°F15.9°C 98% Calm Calm -- 30.03 in1016.9 mb - 0.00 in0.0 mm 0.06 in1.5 mm
10:10 PM 61.3°F16.3°C 60.8°F16.0°C 98% Calm Calm -- 30.06 in1017.9 mb - 0.00 in0.0 mm 0.06 in1.5 mm
10:15 PM 61.2°F16.2°C 60.6°F15.9°C 98% Calm Calm -- 30.06 in1017.9 mb - 0.00 in0.0 mm 0.06 in1.5 mm
10:20 PM 61.0°F16.1°C 60.4°F15.8°C 98% Calm Calm -- 30.06 in1017.9 mb - 0.00 in0.0 mm 0.06 in1.5 mm
10:25 PM 60.8°F16.0°C 60.2°F15.7°C 98% Calm Calm -- 30.06 in1017.9 mb - 0.00 in0.0 mm 0.06 in1.5 mm
10:30 PM 60.8°F16.0°C 60.2°F15.7°C 98% 3.5 mph W5.6 kmh W 4.6 mph7.4 kmh 30.06 in1017.9 mb - 0.00 in0.0 mm 0.06 in1.5 mm
10:35 PM 60.6°F15.9°C 60.3°F15.7°C 99% 2.3 mph W3.7 kmh W 3.5 mph5.6 kmh 30.06 in1017.9 mb - 0.00 in0.0 mm 0.06 in1.5 mm
10:40 PM 60.4°F15.8°C 60.2°F15.7°C 99% Calm Calm -- 30.06 in1017.9 mb - 0.00 in0.0 mm 0.06 in1.5 mm
10:45 PM 60.4°F15.8°C 60.2°F15.7°C 99% Calm Calm -- 30.06 in1017.9 mb - 0.00 in0.0 mm 0.06 in1.5 mm
10:50 PM 60.3°F15.7°C 60.0°F15.6°C 99% 1.2 mph NW1.9 kmh NW 3.5 mph5.6 kmh 30.06 in1017.9 mb - 0.00 in0.0 mm 0.06 in1.5 mm
10:55 PM 60.3°F15.7°C 60.0°F15.6°C 99% 1.2 mph W1.9 kmh W 3.5 mph5.6 kmh 30.06 in1017.9 mb - 0.00 in0.0 mm 0.06 in1.5 mm
11:00 PM 60.3°F15.7°C 60.0°F15.6°C 99% Calm Calm -- 30.06 in1017.9 mb - 0.00 in0.0 mm 0.66 in16.8 mm
11:10 PM 60.3°F15.7°C 60.0°F15.6°C 99% Calm Calm -- 30.06 in1017.9 mb - 0.00 in0.0 mm 0.66 in16.8 mm
11:15 PM 60.1°F15.6°C 59.8°F15.4°C 99% 3.5 mph SW5.6 kmh SW 4.6 mph7.4 kmh 30.06 in1017.9 mb - 0.00 in0.0 mm 0.66 in16.8 mm
11:20 PM 60.1°F15.6°C 59.8°F15.4°C 99% 5.8 mph NW9.3 kmh NW 6.9 mph11.1 kmh 30.06 in1017.9 mb - 0.00 in0.0 mm 0.66 in16.8 mm
11:25 PM 60.1°F15.6°C 59.8°F15.4°C 99% 5.8 mph NW9.3 kmh NW 6.9 mph11.1 kmh 30.06 in1017.9 mb - 0.00 in0.0 mm 0.66 in16.8 mm
11:30 PM 59.9°F15.5°C 59.6°F15.3°C 99% 3.5 mph W5.6 kmh W 6.9 mph11.1 kmh 30.06 in1017.9 mb - 0.00 in0.0 mm 0.66 in16.8 mm
11:35 PM 59.9°F15.5°C 59.6°F15.3°C 99% 3.5 mph W5.6 kmh W 5.8 mph9.3 kmh 30.06 in1017.9 mb - 0.00 in0.0 mm 0.66 in16.8 mm
11:40 PM 59.9°F15.5°C 59.6°F15.3°C 99% 2.3 mph W3.7 kmh W 3.5 mph5.6 kmh 30.06 in1017.9 mb - 0.00 in0.0 mm 0.66 in16.8 mm
11:45 PM 59.9°F15.5°C 59.6°F15.3°C 99% 2.3 mph W3.7 kmh W 3.5 mph5.6 kmh 30.06 in1017.9 mb - 0.00 in0.0 mm 0.66 in16.8 mm
11:50 PM 59.9°F15.5°C 59.6°F15.3°C 99% 1.2 mph W1.9 kmh W 4.6 mph7.4 kmh 30.06 in1017.9 mb - 0.00 in0.0 mm 0.66 in16.8 mm
11:55 PM 59.9°F15.5°C 59.6°F15.3°C 99% 2.3 mph W3.7 kmh W 3.5 mph5.6 kmh 30.06 in1017.9 mb - 0.00 in0.0 mm 0.66 in16.8 mm